Main page
Satellite images 15-day forecastsClimateMarine weather Cyclones Lightning AirportsFAQ Newsletter About
Weather : Europe Africa North America South America Asia Australia-Oceania Others
Languages Contact

London-Heathrow, England

latitude: 51-29N, longitude: 000-27W, elevation: 24 m


METAR: EGLL 291420Z 31006KT 270V070 CAVOK 26/11 Q1015
short-TAF: out of date (50224 hours)
long-TAF: EGLL 291059Z 2912/3018 34007KT 9999 FEW040

Time: 15:44 (14:44 UTC)

Current weather observation

The report was made 24 minutes ago, at 14:20 UTC  
Wind 06 kt from the Northwest, varying between West and East/Northeast
Temperature 26°C
Humidity 39%
Pressure 1015 hPa
Visibility 10 km or more
no clouds below 1500 m and no cumulonimbus

Change units

Forecast

The report was made 3 hours and 29 minutes ago, at 11:15 UTC  
Forecast valid from 29 at 12 UTC to 30 at 18 UTC
Wind 07 kt from the North/Northwest
Visibility 10 km or more
Few clouds at a height of 4000 ft
The information on this site is subject to a disclaimer
Weather : Europe Africa North America South America Asia Australia-Oceania Others
Satellite images 15-day forecastsClimateMarine weather Cyclones Lightning AirportsFAQ Languages Contact Newsletter About